Time;durP1;ratioP1;P1;durP2;ratioP2;P2;SDS_P1;SDS_P2;PMS_P1;PMS_P2;Temp;Humidity;BMP_temperature;BMP_pressure;BME280_temperature;BME280_humidity;BME280_pressure;Samples;Min_cycle;Max_cycle;Signal;HPM_P1;HPM_P2
2021/01/13 00:01:27;;;;;;;;;;;19.30;56.10;;;;;;5054880;28;1645;-63
2021/01/13 00:03:54;;;;;;;;;;;19.30;56.20;;;;;;5055257;28;1372;-64
2021/01/13 00:06:20;;;;;;;;;;;19.20;56.20;;;;;;5055013;28;1608;-64
2021/01/13 00:08:45;;;;;;;;;;;19.20;56.20;;;;;;5048821;28;1553;-63
2021/01/13 00:11:13;;;;;;;;;;;19.20;56.30;;;;;;5035222;28;1602;-64
2021/01/13 00:13:38;;;;;;;;;;;19.20;56.30;;;;;;5045844;28;1505;-65
2021/01/13 00:16:04;;;;;;;;;;;19.20;56.30;;;;;;5054380;28;1673;-65
2021/01/13 00:18:29;;;;;;;;;;;19.20;56.40;;;;;;5054982;28;1961;-64
2021/01/13 00:20:55;;;;;;;;;;;19.20;56.40;;;;;;5054982;28;1682;-65
2021/01/13 00:23:20;;;;;;;;;;;19.20;56.40;;;;;;5054447;28;1462;-65
2021/01/13 00:25:45;;;;;;;;;;;19.20;56.40;;;;;;5054374;28;1410;-65
2021/01/13 00:28:11;;;;;;;;;;;19.20;56.40;;;;;;5054682;28;1678;-64
2021/01/13 00:30:36;;;;;;;;;;;19.20;56.50;;;;;;5054392;28;1595;-65
2021/01/13 00:33:02;;;;;;;;;;;19.20;56.50;;;;;;5054712;28;1645;-64
2021/01/13 00:35:27;;;;;;;;;;;19.20;56.50;;;;;;5054527;28;1683;-63
2021/01/13 00:37:53;;;;;;;;;;;19.20;56.50;;;;;;5054072;28;1634;-64
2021/01/13 00:40:18;;;;;;;;;;;19.20;56.50;;;;;;5054381;28;1898;-65
2021/01/13 00:42:47;;;;;;;;;;;19.20;56.60;;;;;;5054234;28;1712;-65
2021/01/13 00:45:13;;;;;;;;;;;19.20;56.60;;;;;;5053647;28;1773;-65
2021/01/13 00:47:40;;;;;;;;;;;19.10;56.60;;;;;;5036153;28;1638;-64
2021/01/13 00:50:06;;;;;;;;;;;19.10;57.10;;;;;;5054149;28;1385;-64
2021/01/13 00:52:31;;;;;;;;;;;19.20;56.60;;;;;;5053145;28;1517;-64
2021/01/13 00:54:57;;;;;;;;;;;19.20;56.70;;;;;;5053409;28;1562;-64
2021/01/13 00:57:22;;;;;;;;;;;19.20;56.70;;;;;;5053622;28;1511;-64
2021/01/13 00:59:48;;;;;;;;;;;19.10;56.60;;;;;;5053812;28;1950;-65
2021/01/13 01:02:13;;;;;;;;;;;19.20;56.70;;;;;;5089905;22;3680;-66
2021/01/13 01:04:39;;;;;;;;;;;19.20;56.70;;;;;;5079120;28;846;-68
2021/01/13 01:07:05;;;;;;;;;;;19.20;56.70;;;;;;5073020;28;1520;-68
2021/01/13 01:09:30;;;;;;;;;;;19.20;56.70;;;;;;5056018;28;1056;-67
2021/01/13 01:11:56;;;;;;;;;;;19.10;56.70;;;;;;5086422;28;1436;-67
2021/01/13 01:14:21;;;;;;;;;;;19.20;56.70;;;;;;5058431;28;1500;-67
2021/01/13 01:16:47;;;;;;;;;;;19.20;56.80;;;;;;5073341;28;1732;-67
2021/01/13 01:19:12;;;;;;;;;;;19.20;56.80;;;;;;5073563;28;1917;-67
2021/01/13 01:21:38;;;;;;;;;;;19.10;56.70;;;;;;5073423;28;1384;-67
2021/01/13 01:24:04;;;;;;;;;;;19.10;56.80;;;;;;5071567;28;1709;-67
2021/01/13 01:26:30;;;;;;;;;;;19.10;56.80;;;;;;5069771;28;1743;-67
2021/01/13 01:28:55;;;;;;;;;;;19.10;56.80;;;;;;5073605;28;1375;-67
2021/01/13 01:31:20;;;;;;;;;;;19.10;56.80;;;;;;5073216;28;1705;-67
2021/01/13 01:33:46;;;;;;;;;;;19.10;56.80;;;;;;5073211;28;1454;-68
2021/01/13 01:36:14;;;;;;;;;;;19.10;56.80;;;;;;5072474;28;1425;-68
2021/01/13 01:38:40;;;;;;;;;;;19.10;56.80;;;;;;5073333;28;1963;-68
2021/01/13 01:41:06;;;;;;;;;;;19.10;56.90;;;;;;5073239;28;1402;-68
2021/01/13 01:43:31;;;;;;;;;;;19.10;56.90;;;;;;5072785;28;1790;-66
2021/01/13 01:45:57;;;;;;;;;;;19.10;56.90;;;;;;5071708;28;1824;-67
2021/01/13 01:48:26;;;;;;;;;;;19.10;56.90;;;;;;5072227;28;1703;-67
2021/01/13 01:50:52;;;;;;;;;;;19.10;56.90;;;;;;5055016;28;1743;-67
2021/01/13 01:53:21;;;;;;;;;;;19.10;56.90;;;;;;5071923;28;1400;-67
2021/01/13 01:56:06;;;;;;;;;;;19.10;56.90;;;;;;5055228;28;1689;-67
2021/01/13 01:58:32;;;;;;;;;;;19.10;56.90;;;;;;5054990;28;1560;-67
2021/01/13 02:00:58;;;;;;;;;;;19.10;56.90;;;;;;5071134;28;1951;-67
2021/01/13 02:03:24;;;;;;;;;;;19.10;57.00;;;;;;5072477;28;1412;-67
2021/01/13 02:05:50;;;;;;;;;;;19.10;56.90;;;;;;5061050;28;1252;-66
2021/01/13 02:08:20;;;;;;;;;;;19.10;57.00;;;;;;5071694;28;1418;-66
2021/01/13 02:10:46;;;;;;;;;;;19.10;57.10;;;;;;5072358;28;1738;-66
2021/01/13 02:13:12;;;;;;;;;;;19.10;57.00;;;;;;5072672;28;1288;-67
2021/01/13 02:15:37;;;;;;;;;;;19.10;57.00;;;;;;5070596;28;1659;-67
2021/01/13 02:18:03;;;;;;;;;;;19.10;57.00;;;;;;5072006;28;1703;-67
2021/01/13 02:20:30;;;;;;;;;;;19.10;57.00;;;;;;5072468;28;1918;-67
2021/01/13 02:22:59;;;;;;;;;;;19.10;57.00;;;;;;5072700;28;1381;-67
2021/01/13 02:25:43;;;;;;;;;;;19.10;57.00;;;;;;5072099;28;1404;-68
2021/01/13 02:28:09;;;;;;;;;;;19.10;57.00;;;;;;5072238;28;1308;-67
2021/01/13 02:30:50;;;;;;;;;;;19.10;57.00;;;;;;5073235;28;1720;-67
2021/01/13 02:33:29;;;;;;;;;;;19.10;57.00;;;;;;5073106;28;1220;-67
2021/01/13 02:36:08;;;;;;;;;;;19.10;57.00;;;;;;5071350;28;1285;-67
2021/01/13 02:38:34;;;;;;;;;;;19.10;57.00;;;;;;5073079;28;1399;-67
2021/01/13 02:40:59;;;;;;;;;;;19.10;57.00;;;;;;5055575;28;2005;-66
2021/01/13 02:43:27;;;;;;;;;;;19.10;56.90;;;;;;5072015;28;1698;-66
2021/01/13 02:45:52;;;;;;;;;;;19.10;56.90;;;;;;5071295;28;1738;-67
2021/01/13 02:48:21;;;;;;;;;;;19.10;56.90;;;;;;5071974;28;1402;-67
2021/01/13 02:50:50;;;;;;;;;;;19.10;56.90;;;;;;5072548;28;1694;-67
2021/01/13 02:53:16;;;;;;;;;;;19.20;56.90;;;;;;5071916;28;1315;-67
2021/01/13 02:55:41;;;;;;;;;;;19.20;56.80;;;;;;5073034;28;1362;-67
2021/01/13 02:58:08;;;;;;;;;;;19.20;56.80;;;;;;5072792;28;1667;-66
2021/01/13 03:00:35;;;;;;;;;;;19.20;56.70;;;;;;5054272;28;1910;-68
2021/01/13 03:03:01;;;;;;;;;;;19.20;56.70;;;;;;5072670;28;1711;-67
2021/01/13 03:05:27;;;;;;;;;;;19.20;56.70;;;;;;5070387;28;1438;-67
2021/01/13 03:07:53;;;;;;;;;;;19.20;56.70;;;;;;5072043;28;1396;-67
2021/01/13 03:10:18;;;;;;;;;;;19.30;56.70;;;;;;5071301;28;1370;-67
2021/01/13 03:12:44;;;;;;;;;;;19.30;56.60;;;;;;5070713;28;1698;-67
2021/01/13 03:15:10;;;;;;;;;;;19.30;56.60;;;;;;5053482;28;1611;-67
2021/01/13 03:17:35;;;;;;;;;;;19.30;56.60;;;;;;5072196;28;1647;-67
2021/01/13 03:20:19;;;;;;;;;;;19.30;56.60;;;;;;5071901;28;1910;-67
2021/01/13 03:22:50;;;;;;;;;;;19.30;56.50;;;;;;5074267;28;1583;-67
2021/01/13 03:25:16;;;;;;;;;;;19.30;56.50;;;;;;5060628;28;1281;-67
2021/01/13 03:27:42;;;;;;;;;;;19.30;56.50;;;;;;5052974;28;1647;-67
2021/01/13 03:30:08;;;;;;;;;;;19.30;56.50;;;;;;5066719;28;1156;-67
2021/01/13 03:32:52;;;;;;;;;;;19.30;56.50;;;;;;5078184;28;1497;-66
2021/01/13 03:35:18;;;;;;;;;;;19.30;56.50;;;;;;5095564;28;1200;-67
2021/01/13 03:37:46;;;;;;;;;;;19.30;56.50;;;;;;5077479;28;1417;-67
2021/01/13 03:40:13;;;;;;;;;;;19.30;56.50;;;;;;5095945;28;1909;-66
2021/01/13 03:42:38;;;;;;;;;;;19.30;56.50;;;;;;5078375;28;1396;-67
2021/01/13 03:45:07;;;;;;;;;;;19.30;57.10;;;;;;5059740;28;1371;-66
2021/01/13 03:47:45;;;;;;;;;;;19.30;56.50;;;;;;5057217;28;1365;-67
2021/01/13 03:50:16;;;;;;;;;;;19.30;56.50;;;;;;5056365;28;1413;-67
2021/01/13 03:52:51;;;;;;;;;;;19.30;56.50;;;;;;5062786;28;1297;-67
2021/01/13 03:55:16;;;;;;;;;;;19.30;56.50;;;;;;5073700;28;1304;-67
2021/01/13 03:57:48;;;;;;;;;;;19.30;56.50;;;;;;5072608;28;1255;-67
2021/01/13 04:00:14;;;;;;;;;;;19.30;56.50;;;;;;5075055;28;1957;-67
2021/01/13 04:02:42;;;;;;;;;;;19.30;56.50;;;;;;5056895;28;1370;-67
2021/01/13 04:05:20;;;;;;;;;;;19.30;56.50;;;;;;5073574;28;1401;-68
2021/01/13 04:07:45;;;;;;;;;;;19.30;56.50;;;;;;5073308;28;1729;-67
2021/01/13 04:10:12;;;;;;;;;;;19.30;56.50;;;;;;5073629;28;1457;-68
2021/01/13 04:12:42;;;;;;;;;;;19.30;56.60;;;;;;5075117;28;1310;-67
2021/01/13 04:15:08;;;;;;;;;;;19.30;56.60;;;;;;5056183;28;1279;-67
2021/01/13 04:17:33;;;;;;;;;;;19.30;56.50;;;;;;5074244;28;1166;-67
2021/01/13 04:19:59;;;;;;;;;;;19.30;56.50;;;;;;5075205;28;1909;-67
2021/01/13 04:22:26;;;;;;;;;;;19.30;56.60;;;;;;5057112;28;1359;-67
2021/01/13 04:24:51;;;;;;;;;;;19.30;56.50;;;;;;5072259;28;1182;-67
2021/01/13 04:27:17;;;;;;;;;;;19.30;56.60;;;;;;5074508;28;1155;-67
2021/01/13 04:29:42;;;;;;;;;;;19.30;56.50;;;;;;5074817;28;1095;-67
2021/01/13 04:32:09;;;;;;;;;;;19.30;56.50;;;;;;5073751;28;1354;-67
2021/01/13 04:34:34;;;;;;;;;;;19.30;56.50;;;;;;5073625;28;1450;-67
2021/01/13 04:37:00;;;;;;;;;;;19.30;56.60;;;;;;5074302;28;1299;-67
2021/01/13 04:39:25;;;;;;;;;;;19.30;56.60;;;;;;5074178;28;1934;-67
2021/01/13 04:41:54;;;;;;;;;;;19.30;56.60;;;;;;5074906;28;1450;-68
2021/01/13 04:44:19;;;;;;;;;;;19.30;56.60;;;;;;5075012;28;1354;-67
2021/01/13 04:46:45;;;;;;;;;;;19.30;56.60;;;;;;5073550;28;1154;-67
2021/01/13 04:49:11;;;;;;;;;;;19.30;56.60;;;;;;5073221;28;1321;-67
2021/01/13 04:51:36;;;;;;;;;;;19.30;56.60;;;;;;5073144;28;1355;-67
2021/01/13 04:54:06;;;;;;;;;;;19.30;56.60;;;;;;5073576;28;1147;-67
2021/01/13 04:56:34;;;;;;;;;;;19.30;56.60;;;;;;5072856;28;1182;-67
2021/01/13 04:59:12;;;;;;;;;;;19.30;56.60;;;;;;5067328;28;1955;-67
2021/01/13 05:01:44;;;;;;;;;;;19.40;56.60;;;;;;5081887;28;1289;-67
2021/01/13 05:04:24;;;;;;;;;;;19.30;56.60;;;;;;5093713;28;1521;-67
2021/01/13 05:07:08;;;;;;;;;;;19.30;56.50;;;;;;5094359;28;1289;-67
2021/01/13 05:09:39;;;;;;;;;;;19.30;56.50;;;;;;5094425;28;1308;-67
2021/01/13 05:12:04;;;;;;;;;;;19.30;56.50;;;;;;5075815;28;1403;-67
2021/01/13 05:14:30;;;;;;;;;;;19.40;56.50;;;;;;5075609;28;1199;-67
2021/01/13 05:16:59;;;;;;;;;;;19.30;56.50;;;;;;5072090;28;1323;-67
2021/01/13 05:19:31;;;;;;;;;;;19.40;56.50;;;;;;5073155;28;1955;-67
2021/01/13 05:21:56;;;;;;;;;;;19.40;56.50;;;;;;5074628;28;1271;-67
2021/01/13 05:24:22;;;;;;;;;;;19.30;56.40;;;;;;5073647;28;1095;-67
2021/01/13 05:26:53;;;;;;;;;;;19.40;56.40;;;;;;5072414;28;1333;-67
2021/01/13 05:29:32;;;;;;;;;;;19.40;56.50;;;;;;5072426;28;1297;-67
2021/01/13 05:31:58;;;;;;;;;;;19.40;56.40;;;;;;5073421;28;1231;-67
2021/01/13 05:34:24;;;;;;;;;;;19.40;56.40;;;;;;5072490;28;1421;-67
2021/01/13 05:37:10;;;;;;;;;;;19.40;56.40;;;;;;5072292;28;1260;-67
2021/01/13 05:39:35;;;;;;;;;;;19.40;56.40;;;;;;5048136;28;1898;-67
2021/01/13 05:42:01;;;;;;;;;;;19.40;56.40;;;;;;5071832;28;1360;-67
2021/01/13 05:44:28;;;;;;;;;;;19.40;56.40;;;;;;5073341;28;1424;-67
2021/01/13 05:46:56;;;;;;;;;;;19.40;56.40;;;;;;5055721;28;1440;-67
2021/01/13 05:49:22;;;;;;;;;;;19.40;56.40;;;;;;5072829;28;1150;-67
2021/01/13 05:51:47;;;;;;;;;;;19.40;56.50;;;;;;5072336;28;1267;-67
2021/01/13 05:54:14;;;;;;;;;;;19.40;56.50;;;;;;5073153;28;1346;-67
2021/01/13 05:56:39;;;;;;;;;;;19.40;56.50;;;;;;5071819;28;1302;-66
2021/01/13 05:59:05;;;;;;;;;;;19.40;56.50;;;;;;5073428;28;1910;-67
2021/01/13 06:01:46;;;;;;;;;;;19.40;56.50;;;;;;5073102;28;1310;-67
2021/01/13 06:04:13;;;;;;;;;;;19.40;56.50;;;;;;5071772;28;1308;-66
2021/01/13 06:06:58;;;;;;;;;;;19.40;56.50;;;;;;5072166;28;1289;-67
2021/01/13 06:09:23;;;;;;;;;;;19.40;56.50;;;;;;5073300;28;1306;-67
2021/01/13 06:11:52;;;;;;;;;;;19.40;56.50;;;;;;5072713;28;1358;-66
2021/01/13 06:14:21;;;;;;;;;;;19.40;56.50;;;;;;5060672;28;1211;-67
2021/01/13 06:16:48;;;;;;;;;;;19.40;56.50;;;;;;5051161;28;1143;-67
2021/01/13 06:19:13;;;;;;;;;;;19.40;56.50;;;;;;5051140;28;1953;-67
2021/01/13 06:21:39;;;;;;;;;;;19.30;56.50;;;;;;5050745;28;1345;-67
2021/01/13 06:24:10;;;;;;;;;;;19.30;56.50;;;;;;5050698;28;1415;-68
2021/01/13 06:26:35;;;;;;;;;;;19.30;56.50;;;;;;5051159;28;1306;-67
2021/01/13 06:29:01;;;;;;;;;;;19.30;56.50;;;;;;5034495;28;1323;-67
2021/01/13 06:31:27;;;;;;;;;;;19.40;56.60;;;;;;5090067;28;1415;-67
2021/01/13 06:34:11;;;;;;;;;;;19.40;56.60;;;;;;5073913;28;1131;-68
2021/01/13 06:36:37;;;;;;;;;;;19.30;56.50;;;;;;5092345;28;1262;-67
2021/01/13 06:39:06;;;;;;;;;;;19.30;56.50;;;;;;5092610;28;2233;-67
2021/01/13 06:41:42;;;;;;;;;;;19.30;56.50;;;;;;5074429;28;1487;-67
2021/01/13 06:44:08;;;;;;;;;;;19.40;56.60;;;;;;5074346;28;1357;-67
2021/01/13 06:46:33;;;;;;;;;;;19.30;57.10;;;;;;5092377;28;1141;-67
2021/01/13 06:49:18;;;;;;;;;;;19.30;56.60;;;;;;5092332;28;1011;-68
2021/01/13 06:51:44;;;;;;;;;;;19.30;56.50;;;;;;5079713;28;1360;-67
2021/01/13 06:54:11;;;;;;;;;;;19.30;56.60;;;;;;5071812;28;1247;-67
2021/01/13 06:56:37;;;;;;;;;;;19.30;56.60;;;;;;5070726;28;1362;-67
2021/01/13 06:59:02;;;;;;;;;;;19.30;56.60;;;;;;5064360;28;1979;-67
2021/01/13 07:01:28;;;;;;;;;;;19.30;56.50;;;;;;5097717;22;2119;-67
2021/01/13 07:04:02;;;;;;;;;;;19.30;56.50;;;;;;5047371;28;1693;-64
2021/01/13 07:06:28;;;;;;;;;;;19.30;56.50;;;;;;5055984;28;1423;-64
2021/01/13 07:08:53;;;;;;;;;;;19.40;56.50;;;;;;5055924;28;1080;-65
2021/01/13 07:11:19;;;;;;;;;;;19.40;56.50;;;;;;5037999;28;1340;-64
2021/01/13 07:13:48;;;;;;;;;;;19.40;56.50;;;;;;5047817;28;1132;-64
2021/01/13 07:16:14;;;;;;;;;;;19.40;56.40;;;;;;5037687;28;1112;-65
2021/01/13 07:18:39;;;;;;;;;;;19.40;56.40;;;;;;5055729;28;1103;-66
2021/01/13 07:21:08;;;;;;;;;;;19.40;56.40;;;;;;5037964;28;1977;-65
2021/01/13 07:23:35;;;;;;;;;;;19.40;57.00;;;;;;5055686;28;1292;-65
2021/01/13 07:26:00;;;;;;;;;;;19.40;56.40;;;;;;5055007;28;1306;-65
2021/01/13 07:28:26;;;;;;;;;;;19.40;56.40;;;;;;5054291;28;1382;-65
2021/01/13 07:30:52;;;;;;;;;;;19.40;56.40;;;;;;5043989;28;1843;-64
2021/01/13 07:33:17;;;;;;;;;;;19.40;56.40;;;;;;5049036;28;1262;-63
2021/01/13 07:35:44;;;;;;;;;;;19.40;56.40;;;;;;5036270;28;1179;-63
2021/01/13 07:38:11;;;;;;;;;;;19.40;56.40;;;;;;5051635;28;947;-64
2021/01/13 07:40:37;;;;;;;;;;;19.40;56.40;;;;;;5052921;28;1902;-64
2021/01/13 07:43:02;;;;;;;;;;;19.40;56.40;;;;;;5036747;28;1328;-63
2021/01/13 07:45:28;;;;;;;;;;;19.40;56.40;;;;;;5053238;28;1410;-64
2021/01/13 07:48:00;;;;;;;;;;;19.40;56.30;;;;;;5054426;28;1352;-63
2021/01/13 07:50:25;;;;;;;;;;;19.40;56.30;;;;;;5056433;28;1338;-63
2021/01/13 07:52:51;;;;;;;;;;;19.40;56.30;;;;;;5047599;28;1643;-63
2021/01/13 07:55:17;;;;;;;;;;;19.40;56.30;;;;;;5035474;28;1175;-65
2021/01/13 07:57:45;;;;;;;;;;;19.40;56.30;;;;;;5055303;28;1320;-63
2021/01/13 08:00:11;;;;;;;;;;;19.40;56.30;;;;;;5054192;28;1952;-67
2021/01/13 08:02:55;;;;;;;;;;;19.40;56.30;;;;;;5036112;28;1273;-67
2021/01/13 08:05:39;;;;;;;;;;;19.40;56.30;;;;;;5053059;28;1371;-66
2021/01/13 08:08:08;;;;;;;;;;;19.40;56.30;;;;;;5053191;28;1064;-66
2021/01/13 08:10:37;;;;;;;;;;;19.40;56.30;;;;;;5053685;28;1327;-66
2021/01/13 08:13:21;;;;;;;;;;;19.40;56.30;;;;;;5035109;28;1324;-67
2021/01/13 08:15:56;;;;;;;;;;;19.40;56.30;;;;;;5052764;28;1317;-66
2021/01/13 08:18:45;;;;;;;;;;;19.40;56.30;;;;;;5053274;28;1115;-66
2021/01/13 08:21:13;;;;;;;;;;;19.40;56.30;;;;;;5053067;28;1902;-66
2021/01/13 08:23:47;;;;;;;;;;;19.40;56.30;;;;;;5053371;28;1340;-66
2021/01/13 08:26:13;;;;;;;;;;;19.40;56.30;;;;;;5052866;28;1341;-68
2021/01/13 08:28:39;;;;;;;;;;;19.40;56.30;;;;;;5035265;28;1338;-65
2021/01/13 08:31:05;;;;;;;;;;;19.40;56.30;;;;;;5049724;28;2242;-66
2021/01/13 08:33:32;;;;;;;;;;;19.40;56.30;;;;;;5023495;28;1297;-65
2021/01/13 08:35:59;;;;;;;;;;;19.40;56.20;;;;;;5031389;28;1098;-64
2021/01/13 08:38:25;;;;;;;;;;;19.40;56.10;;;;;;5043256;28;1263;-63
2021/01/13 08:40:50;;;;;;;;;;;19.50;56.10;;;;;;5033367;28;1902;-63
2021/01/13 08:43:16;;;;;;;;;;;19.50;56.00;;;;;;5033331;28;1332;-63
2021/01/13 08:45:42;;;;;;;;;;;19.50;55.90;;;;;;5018701;28;1737;-65
2021/01/13 08:48:09;;;;;;;;;;;19.60;55.90;;;;;;5053563;28;1252;-66
2021/01/13 08:50:35;;;;;;;;;;;19.60;55.80;;;;;;5057168;28;1248;-65
2021/01/13 08:53:03;;;;;;;;;;;19.60;55.80;;;;;;5064219;28;1315;-65
2021/01/13 08:55:29;;;;;;;;;;;19.60;55.70;;;;;;5035722;28;1304;-65
2021/01/13 08:57:55;;;;;;;;;;;19.60;55.60;;;;;;5053078;28;1362;-65
2021/01/13 09:00:21;;;;;;;;;;;19.70;55.70;;;;;;5053900;28;1906;-65
2021/01/13 09:03:02;;;;;;;;;;;19.70;55.60;;;;;;5035941;28;1371;-65
2021/01/13 09:05:30;;;;;;;;;;;19.70;55.60;;;;;;5053620;28;1363;-65
2021/01/13 09:08:00;;;;;;;;;;;19.70;55.60;;;;;;5053940;28;1376;-65
2021/01/13 09:10:46;;;;;;;;;;;19.70;55.60;;;;;;5035341;28;1124;-65
2021/01/13 09:13:29;;;;;;;;;;;19.70;55.60;;;;;;5053204;28;1414;-65
2021/01/13 09:15:56;;;;;;;;;;;19.70;55.60;;;;;;5053524;28;1269;-65
2021/01/13 09:18:22;;;;;;;;;;;19.70;55.60;;;;;;5036515;28;2046;-66
2021/01/13 09:20:48;;;;;;;;;;;19.70;55.60;;;;;;5053730;28;1906;-65
2021/01/13 09:23:18;;;;;;;;;;;19.70;55.60;;;;;;5053422;28;1291;-65
2021/01/13 09:25:44;;;;;;;;;;;19.70;55.60;;;;;;5034593;28;1603;-65
2021/01/13 09:28:14;;;;;;;;;;;19.70;55.60;;;;;;5035330;28;1330;-65
2021/01/13 09:30:43;;;;;;;;;;;19.70;55.60;;;;;;5035628;28;1307;-65
2021/01/13 09:33:10;;;;;;;;;;;19.70;55.60;;;;;;5035543;28;1363;-65
2021/01/13 09:35:38;;;;;;;;;;;19.70;55.60;;;;;;5053321;28;1262;-66
2021/01/13 09:38:06;;;;;;;;;;;19.70;55.60;;;;;;5052883;28;1306;-65
2021/01/13 09:40:50;;;;;;;;;;;19.60;55.60;;;;;;5052982;28;1961;-65
2021/01/13 09:43:36;;;;;;;;;;;19.70;55.60;;;;;;5053092;28;1367;-65
2021/01/13 09:46:06;;;;;;;;;;;19.70;55.60;;;;;;5052711;28;1300;-65
2021/01/13 09:48:32;;;;;;;;;;;19.60;55.60;;;;;;5053421;28;1657;-65
2021/01/13 09:51:04;;;;;;;;;;;19.60;55.60;;;;;;5059812;28;1422;-65
2021/01/13 09:53:31;;;;;;;;;;;19.70;55.70;;;;;;5058866;28;1340;-65
2021/01/13 09:56:06;;;;;;;;;;;19.60;55.70;;;;;;5052991;28;1297;-66
2021/01/13 09:58:37;;;;;;;;;;;19.60;55.70;;;;;;5053090;28;1273;-65
2021/01/13 10:01:06;;;;;;;;;;;19.60;55.70;;;;;;5029857;28;2179;-65
2021/01/13 10:03:32;;;;;;;;;;;19.60;55.60;;;;;;5034639;28;1521;-65
2021/01/13 10:05:58;;;;;;;;;;;19.60;55.60;;;;;;5052528;28;1556;-66
2021/01/13 10:08:32;;;;;;;;;;;19.60;56.20;;;;;;5052663;28;1622;-65
2021/01/13 10:10:58;;;;;;;;;;;19.70;55.70;;;;;;5052571;28;1580;-65
2021/01/13 10:13:24;;;;;;;;;;;19.70;55.60;;;;;;5034935;28;1825;-65
2021/01/13 10:15:49;;;;;;;;;;;19.80;55.50;;;;;;5034677;28;1411;-66
2021/01/13 10:18:15;;;;;;;;;;;19.90;55.30;;;;;;5052751;28;1621;-65
2021/01/13 10:20:40;;;;;;;;;;;20.00;55.10;;;;;;5052553;28;1969;-66
2021/01/13 10:23:06;;;;;;;;;;;20.20;54.90;;;;;;5034374;28;1333;-66
2021/01/13 10:25:33;;;;;;;;;;;20.30;54.70;;;;;;5051985;28;1303;-66
2021/01/13 10:27:59;;;;;;;;;;;20.40;54.40;;;;;;5052345;28;1359;-65
2021/01/13 10:30:25;;;;;;;;;;;20.50;54.20;;;;;;5034682;28;1356;-66
2021/01/13 10:32:51;;;;;;;;;;;20.50;54.00;;;;;;5052212;28;1320;-65
2021/01/13 10:35:17;;;;;;;;;;;20.60;53.90;;;;;;5051916;28;1262;-66
2021/01/13 10:37:50;;;;;;;;;;;20.60;53.70;;;;;;5034020;28;1355;-65
2021/01/13 10:40:16;;;;;;;;;;;20.70;53.70;;;;;;5052091;28;1906;-66
2021/01/13 10:42:41;;;;;;;;;;;20.70;53.50;;;;;;5034312;28;1364;-67
2021/01/13 10:45:13;;;;;;;;;;;20.80;53.50;;;;;;5033304;28;1331;-63
2021/01/13 10:47:40;;;;;;;;;;;20.80;53.40;;;;;;5051945;28;1283;-64
2021/01/13 10:50:05;;;;;;;;;;;20.80;53.30;;;;;;5034532;28;1331;-65
2021/01/13 10:52:31;;;;;;;;;;;20.90;53.20;;;;;;5047472;28;1288;-63
2021/01/13 10:54:56;;;;;;;;;;;20.90;53.20;;;;;;5028051;28;2061;-63
2021/01/13 10:57:31;;;;;;;;;;;21.00;53.10;;;;;;5041399;28;1539;-63
2021/01/13 11:00:04;;;;;;;;;;;21.00;53.10;;;;;;5047840;28;2016;-64
2021/01/13 11:02:30;;;;;;;;;;;21.10;52.90;;;;;;5033502;28;1459;-65
2021/01/13 11:04:58;;;;;;;;;;;21.10;52.80;;;;;;5049369;28;1672;-63
2021/01/13 11:07:23;;;;;;;;;;;21.20;52.70;;;;;;5050158;28;1696;-65
2021/01/13 11:09:49;;;;;;;;;;;21.20;52.60;;;;;;5034385;28;1375;-64
2021/01/13 11:12:19;;;;;;;;;;;21.20;52.60;;;;;;5033620;28;1680;-63
2021/01/13 11:14:46;;;;;;;;;;;21.30;52.50;;;;;;5030651;28;1403;-63
2021/01/13 11:17:13;;;;;;;;;;;21.30;52.40;;;;;;5051125;28;1656;-66
2021/01/13 11:19:39;;;;;;;;;;;21.30;52.30;;;;;;5017564;28;1919;-63
2021/01/13 11:22:05;;;;;;;;;;;21.30;52.30;;;;;;5041638;28;2212;-63
2021/01/13 11:24:31;;;;;;;;;;;21.40;52.30;;;;;;5033142;28;968;-64
2021/01/13 11:27:09;;;;;;;;;;;21.40;52.30;;;;;;5032966;28;1174;-65
2021/01/13 11:29:36;;;;;;;;;;;21.40;52.20;;;;;;5051200;28;1390;-63
2021/01/13 11:32:01;;;;;;;;;;;21.40;52.20;;;;;;5050859;28;1279;-63
2021/01/13 11:34:27;;;;;;;;;;;21.40;52.20;;;;;;5050658;28;1100;-64
2021/01/13 11:37:16;;;;;;;;;;;21.40;52.20;;;;;;5043544;28;2019;-64
2021/01/13 11:40:02;;;;;;;;;;;21.40;52.20;;;;;;5043595;28;2193;-65
2021/01/13 11:42:28;;;;;;;;;;;21.40;52.20;;;;;;5046039;28;1381;-64
2021/01/13 11:45:00;;;;;;;;;;;21.40;52.20;;;;;;5042930;28;1055;-64
2021/01/13 11:47:32;;;;;;;;;;;21.40;52.20;;;;;;5032910;28;1338;-64
2021/01/13 11:49:59;;;;;;;;;;;21.40;52.30;;;;;;5053820;28;1190;-64
2021/01/13 11:52:29;;;;;;;;;;;21.40;52.20;;;;;;5068261;28;1307;-64
2021/01/13 11:54:55;;;;;;;;;;;21.40;52.30;;;;;;5025298;28;1984;-64
2021/01/13 11:57:20;;;;;;;;;;;21.40;52.30;;;;;;5052825;28;1669;-64
2021/01/13 11:59:46;;;;;;;;;;;21.40;52.30;;;;;;5053960;28;1906;-64
2021/01/13 12:02:19;;;;;;;;;;;21.40;52.90;;;;;;5054051;28;1558;-64
2021/01/13 12:04:44;;;;;;;;;;;21.40;52.30;;;;;;5036273;28;1583;-64
2021/01/13 12:07:10;;;;;;;;;;;21.40;52.30;;;;;;5053777;28;1689;-64
2021/01/13 12:09:36;;;;;;;;;;;21.40;52.30;;;;;;5036594;28;1685;-64
2021/01/13 12:12:05;;;;;;;;;;;21.30;52.30;;;;;;5055165;28;1398;-64
2021/01/13 12:14:40;;;;;;;;;;;21.30;52.40;;;;;;5035721;28;1434;-64
2021/01/13 12:17:06;;;;;;;;;;;21.30;52.40;;;;;;5035879;28;1655;-64
2021/01/13 12:19:34;;;;;;;;;;;21.30;52.40;;;;;;5053857;28;1933;-66
2021/01/13 12:22:00;;;;;;;;;;;21.30;52.50;;;;;;5053735;28;1647;-64
2021/01/13 12:24:34;;;;;;;;;;;21.30;52.60;;;;;;5053643;28;1591;-65
2021/01/13 12:27:02;;;;;;;;;;;21.20;52.60;;;;;;5035748;28;1605;-64
2021/01/13 12:29:28;;;;;;;;;;;21.20;52.60;;;;;;5035801;28;1779;-66
2021/01/13 12:31:53;;;;;;;;;;;21.20;52.60;;;;;;5053635;28;1702;-64
2021/01/13 12:34:18;;;;;;;;;;;21.20;52.70;;;;;;5053392;28;1395;-64
2021/01/13 12:36:50;;;;;;;;;;;21.20;52.80;;;;;;5053584;28;1395;-64
2021/01/13 12:39:26;;;;;;;;;;;21.10;52.80;;;;;;5036119;28;1906;-64
2021/01/13 12:41:51;;;;;;;;;;;21.10;52.80;;;;;;5053762;28;1577;-64
2021/01/13 12:44:19;;;;;;;;;;;21.10;52.90;;;;;;5036129;28;1629;-64
2021/01/13 12:46:48;;;;;;;;;;;21.10;52.90;;;;;;5037020;28;1600;-64
2021/01/13 12:49:13;;;;;;;;;;;21.00;52.90;;;;;;5054030;28;1401;-64
2021/01/13 12:51:39;;;;;;;;;;;21.00;53.00;;;;;;5066329;28;1583;-64
2021/01/13 12:54:04;;;;;;;;;;;21.00;53.00;;;;;;5055626;28;1639;-65
2021/01/13 12:56:30;;;;;;;;;;;21.00;53.00;;;;;;5053902;28;1635;-64
2021/01/13 12:58:56;;;;;;;;;;;21.00;53.00;;;;;;5054279;28;1713;-65
2021/01/13 13:01:22;;;;;;;;;;;21.00;53.00;;;;;;5036213;28;1894;-65
2021/01/13 13:03:48;;;;;;;;;;;20.90;53.00;;;;;;5054558;28;1714;-64
2021/01/13 13:06:22;;;;;;;;;;;20.90;52.90;;;;;;5036575;28;1692;-64
2021/01/13 13:08:49;;;;;;;;;;;20.90;53.00;;;;;;5054337;28;1840;-64
2021/01/13 13:11:15;;;;;;;;;;;20.90;53.00;;;;;;5053814;28;1606;-64
2021/01/13 13:13:40;;;;;;;;;;;20.90;53.00;;;;;;5053942;28;1758;-64
2021/01/13 13:16:08;;;;;;;;;;;20.80;53.00;;;;;;5035618;28;1674;-65
2021/01/13 13:18:33;;;;;;;;;;;20.80;53.10;;;;;;5019489;28;1636;-63
2021/01/13 13:20:59;;;;;;;;;;;20.90;53.20;;;;;;5053465;28;1906;-64
2021/01/13 13:23:24;;;;;;;;;;;20.80;53.20;;;;;;5035772;28;1589;-66
2021/01/13 13:25:50;;;;;;;;;;;20.80;53.30;;;;;;5053453;28;1661;-65
2021/01/13 13:28:15;;;;;;;;;;;20.80;53.30;;;;;;5052768;28;1728;-65
2021/01/13 13:30:41;;;;;;;;;;;20.80;53.40;;;;;;5053911;28;1701;-65
2021/01/13 13:33:06;;;;;;;;;;;20.70;53.40;;;;;;5053646;28;1507;-65
2021/01/13 13:35:32;;;;;;;;;;;20.70;53.40;;;;;;5053238;28;1564;-65
2021/01/13 13:37:57;;;;;;;;;;;20.70;53.50;;;;;;5051817;28;1705;-64
2021/01/13 13:40:23;;;;;;;;;;;20.70;53.50;;;;;;5054013;28;1906;-65
2021/01/13 13:42:48;;;;;;;;;;;20.70;53.60;;;;;;5053508;28;1370;-63
2021/01/13 13:45:14;;;;;;;;;;;20.70;53.70;;;;;;5052580;28;1591;-64
2021/01/13 13:47:39;;;;;;;;;;;20.70;53.70;;;;;;5052884;28;1347;-64
2021/01/13 13:50:05;;;;;;;;;;;20.60;53.70;;;;;;5053373;28;1378;-64
2021/01/13 13:52:30;;;;;;;;;;;20.60;53.80;;;;;;5066734;28;1492;-63
2021/01/13 13:54:56;;;;;;;;;;;20.60;53.80;;;;;;5034629;28;1691;-64
2021/01/13 13:57:21;;;;;;;;;;;20.60;53.90;;;;;;5052527;28;1390;-64
2021/01/13 13:59:47;;;;;;;;;;;20.60;53.90;;;;;;5053330;28;1958;-65
2021/01/13 14:02:12;;;;;;;;;;;20.50;53.90;;;;;;5052959;28;1400;-64
2021/01/13 14:04:37;;;;;;;;;;;20.50;54.00;;;;;;5052002;28;1419;-65
2021/01/13 14:07:03;;;;;;;;;;;20.50;54.00;;;;;;5046920;28;1477;-66
2021/01/13 14:09:28;;;;;;;;;;;20.50;54.00;;;;;;5033056;28;1651;-64
2021/01/13 14:11:54;;;;;;;;;;;20.50;54.10;;;;;;5032644;28;1584;-64
2021/01/13 14:14:19;;;;;;;;;;;20.50;54.10;;;;;;5048855;28;1173;-66
2021/01/13 14:16:45;;;;;;;;;;;20.50;53.70;;;;;;5052976;28;1529;-65
2021/01/13 14:19:11;;;;;;;;;;;20.40;53.60;;;;;;5034798;28;1979;-64
2021/01/13 14:21:37;;;;;;;;;;;20.50;53.80;;;;;;5052879;28;1676;-64
2021/01/13 14:24:06;;;;;;;;;;;20.50;54.40;;;;;;5052442;28;1609;-65
2021/01/13 14:26:32;;;;;;;;;;;20.40;53.90;;;;;;5051971;28;1484;-65
2021/01/13 14:28:57;;;;;;;;;;;20.40;54.00;;;;;;5034952;28;1801;-65
2021/01/13 14:31:23;;;;;;;;;;;20.40;54.00;;;;;;5052151;28;1585;-64
2021/01/13 14:33:49;;;;;;;;;;;20.40;54.10;;;;;;5052172;28;1481;-64
2021/01/13 14:36:15;;;;;;;;;;;20.40;54.20;;;;;;5052253;28;1387;-64